createdAt,value
2022-12-18T00:03:34.919Z,-7.16
2022-12-18T00:07:36.613Z,-7.18
2022-12-18T00:11:38.138Z,-7.23
2022-12-18T00:15:40.654Z,-7.29
2022-12-18T00:19:42.281Z,-7.31
2022-12-18T00:23:45.281Z,-7.37
2022-12-18T00:27:46.783Z,-7.42
2022-12-18T00:31:48.827Z,-7.47
2022-12-18T00:35:50.355Z,-7.52
2022-12-18T00:39:51.843Z,-7.56
2022-12-18T00:43:54.962Z,-7.56
2022-12-18T00:47:57.018Z,-7.63
2022-12-18T00:51:58.556Z,-7.68
2022-12-18T00:56:00.157Z,-7.72
2022-12-18T01:00:02.106Z,-7.75
2022-12-18T01:04:04.424Z,-7.76
2022-12-18T01:08:05.990Z,-7.83
2022-12-18T01:12:07.813Z,-7.87
2022-12-18T01:16:09.918Z,-7.89
2022-12-18T01:20:13.525Z,-7.97
2022-12-18T01:24:15.011Z,-8.00
2022-12-18T01:28:16.960Z,-8.00
2022-12-18T01:32:18.559Z,-8.08
2022-12-18T01:36:23.935Z,-8.15
2022-12-18T01:40:25.478Z,-8.19
2022-12-18T01:45:04.861Z,-8.26
2022-12-18T01:49:06.314Z,-8.35
2022-12-18T01:53:15.843Z,-8.43
2022-12-18T01:57:17.623Z,-8.50
2022-12-18T02:01:19.719Z,-8.58
2022-12-18T02:05:36.101Z,-8.53
2022-12-18T02:09:47.954Z,-8.49
2022-12-18T02:14:17.772Z,-8.44
2022-12-18T02:18:24.796Z,-8.47
2022-12-18T02:22:55.200Z,-8.59
2022-12-18T02:27:01.704Z,-8.37
2022-12-18T02:31:08.992Z,-8.41
2022-12-18T02:35:17.689Z,-8.32
2022-12-18T02:39:22.131Z,-8.29
2022-12-18T02:43:34.092Z,-8.17
2022-12-18T02:47:39.982Z,-7.98
2022-12-18T02:51:57.091Z,-7.91
2022-12-18T02:56:20.399Z,-7.71
2022-12-18T03:00:38.623Z,-7.71
2022-12-18T03:05:18.971Z,-7.66
2022-12-18T03:09:36.387Z,-7.61
2022-12-18T03:13:51.893Z,-7.51
2022-12-18T03:18:00.293Z,-7.50
2022-12-18T03:22:07.906Z,-7.52
2022-12-18T03:26:23.003Z,-7.53
2022-12-18T03:30:32.136Z,-7.74
2022-12-18T03:34:37.373Z,-7.67
2022-12-18T03:38:42.154Z,-7.78
2022-12-18T03:43:04.353Z,-7.82
2022-12-18T03:47:28.492Z,-7.83
2022-12-18T03:51:51.862Z,-8.05
2022-12-18T03:55:54.093Z,-8.11
2022-12-18T04:00:01.634Z,-8.13
2022-12-18T04:04:17.557Z,-8.25
2022-12-18T04:08:21.586Z,-8.39
2022-12-18T04:12:31.489Z,-8.51
2022-12-18T04:16:33.074Z,-8.62
2022-12-18T04:20:38.020Z,-8.72
2022-12-18T04:24:39.713Z,-8.78
2022-12-18T04:28:51.773Z,-8.78
2022-12-18T04:32:53.358Z,-8.79
2022-12-18T04:36:56.577Z,-8.86
2022-12-18T04:40:58.820Z,-8.89
2022-12-18T04:45:02.629Z,-8.96
2022-12-18T04:49:04.105Z,-9.04
2022-12-18T04:53:05.795Z,-9.10
2022-12-18T04:57:07.374Z,-9.09
2022-12-18T05:01:09.817Z,-9.12
2022-12-18T05:05:11.505Z,-9.16
2022-12-18T05:09:13.148Z,-9.15
2022-12-18T05:13:14.649Z,-9.21
2022-12-18T05:17:16.295Z,-9.28
2022-12-18T05:21:17.955Z,-9.32
2022-12-18T05:25:20.401Z,-9.38
2022-12-18T05:29:22.488Z,-9.41
2022-12-18T05:33:26.997Z,-9.43
2022-12-18T05:37:28.552Z,-9.48
2022-12-18T05:41:30.204Z,-9.57
2022-12-18T05:45:31.880Z,-9.59
2022-12-18T05:49:33.365Z,-9.58
2022-12-18T05:53:36.098Z,-9.55
2022-12-18T05:57:37.738Z,-9.57
2022-12-18T06:01:39.334Z,-9.58
2022-12-18T06:05:44.302Z,-9.60
2022-12-18T06:09:45.809Z,-9.58
2022-12-18T06:13:53.489Z,-9.60
2022-12-18T06:17:57.837Z,-9.60
2022-12-18T06:21:59.832Z,-9.64
2022-12-18T06:26:10.351Z,-9.67
2022-12-18T06:30:13.101Z,-9.73
2022-12-18T06:34:15.555Z,-9.78
2022-12-18T06:38:17.196Z,-9.82
2022-12-18T06:42:18.757Z,-9.84
2022-12-18T06:46:20.339Z,-9.82
2022-12-18T06:50:21.826Z,-9.77
2022-12-18T06:54:23.305Z,-9.70
2022-12-18T06:58:25.451Z,-9.78
2022-12-18T07:02:27.285Z,-9.80
2022-12-18T07:06:28.945Z,-9.81
2022-12-18T07:10:30.499Z,-9.83
2022-12-18T07:14:32.080Z,-9.79
2022-12-18T07:18:33.675Z,-9.69
2022-12-18T07:22:35.226Z,-9.47
2022-12-18T07:26:36.719Z,-9.08
2022-12-18T07:30:39.277Z,-8.59
2022-12-18T07:34:40.996Z,-7.97
2022-12-18T07:38:43.015Z,-7.23
2022-12-18T07:42:44.527Z,-6.37
2022-12-18T07:46:46.071Z,-5.47
2022-12-18T07:50:47.813Z,-4.68
2022-12-18T07:54:50.863Z,-3.85
2022-12-18T07:58:52.412Z,-3.25
2022-12-18T08:02:54.396Z,-2.73
2022-12-18T08:06:56.073Z,-1.88
2022-12-18T08:10:58.292Z,-1.02
2022-12-18T08:14:59.768Z,-0.15
2022-12-18T08:19:01.309Z,0.22
2022-12-18T08:23:02.985Z,1.00
2022-12-18T08:27:28.399Z,1.91
2022-12-18T08:31:27.303Z,1.69
2022-12-18T08:35:34.247Z,1.82
2022-12-18T08:39:37.901Z,2.64
2022-12-18T08:43:58.110Z,3.21
2022-12-18T08:47:59.761Z,4.64
2022-12-18T08:52:01.553Z,5.85
2022-12-18T08:56:04.274Z,6.20
2022-12-18T09:00:06.294Z,6.81
2022-12-18T09:04:09.032Z,7.15
2022-12-18T09:08:10.644Z,7.50
2022-12-18T09:12:12.213Z,7.11
2022-12-18T09:16:13.952Z,8.16
2022-12-18T09:20:15.460Z,8.73
2022-12-18T09:24:18.685Z,10.13
2022-12-18T09:28:20.294Z,10.30
2022-12-18T09:32:22.592Z,10.86
2022-12-18T09:36:24.375Z,9.82
2022-12-18T09:40:29.068Z,9.99
2022-12-18T09:44:43.039Z,9.36
2022-12-18T09:48:51.546Z,9.99
2022-12-18T09:52:57.445Z,9.69
2022-12-18T09:56:59.070Z,9.61
2022-12-18T10:01:00.645Z,10.29
2022-12-18T10:05:15.105Z,10.05
2022-12-18T10:09:32.613Z,9.18
2022-12-18T10:13:40.030Z,9.53
2022-12-18T10:18:02.845Z,9.35
2022-12-18T10:22:27.402Z,9.16
2022-12-18T10:26:32.746Z,9.25
2022-12-18T10:30:34.462Z,8.89
2022-12-18T10:34:36.126Z,9.97
2022-12-18T10:38:38.700Z,9.22
2022-12-18T10:42:42.756Z,10.65
2022-12-18T10:46:48.950Z,11.24
2022-12-18T10:51:10.809Z,12.99
2022-12-18T10:55:17.308Z,12.09
2022-12-18T10:59:19.383Z,13.63
2022-12-18T11:03:32.443Z,13.72
2022-12-18T11:07:50.257Z,12.86
2022-12-18T11:12:04.723Z,12.36
2022-12-18T11:16:06.784Z,12.35
2022-12-18T11:20:24.706Z,11.92
2022-12-18T11:24:37.327Z,12.58
2022-12-18T11:28:43.232Z,12.37
2022-12-18T11:33:04.951Z,12.72
2022-12-18T11:37:06.539Z,12.64
2022-12-18T11:41:17.216Z,11.81
2022-12-18T11:45:26.400Z,12.36
2022-12-18T11:49:34.112Z,12.62
2022-12-18T11:53:38.961Z,11.59
2022-12-18T11:57:46.368Z,10.63
2022-12-18T12:02:00.747Z,12.68
2022-12-18T12:06:27.098Z,11.99
2022-12-18T12:10:35.783Z,13.18
2022-12-18T12:14:52.059Z,13.19
2022-12-18T12:19:15.624Z,12.40
2022-12-18T12:23:40.828Z,11.66
2022-12-18T12:27:57.077Z,11.53
2022-12-18T12:32:08.755Z,11.72
2022-12-18T12:36:30.466Z,12.33
2022-12-18T12:41:00.546Z,12.85
2022-12-18T12:45:01.646Z,12.79
2022-12-18T12:49:05.547Z,11.42
2022-12-18T12:53:10.344Z,10.82
2022-12-18T12:57:22.678Z,8.59
2022-12-18T13:01:38.274Z,6.35
2022-12-18T13:05:52.268Z,6.68
2022-12-18T13:10:23.493Z,5.50
2022-12-18T13:14:38.820Z,5.44
2022-12-18T13:18:50.970Z,4.86
2022-12-18T13:22:52.985Z,3.83
2022-12-18T13:26:55.234Z,2.36
2022-12-18T13:30:58.599Z,2.06
2022-12-18T13:35:18.325Z,2.07
2022-12-18T13:39:28.942Z,2.04
2022-12-18T13:43:44.332Z,1.71
2022-12-18T13:47:46.354Z,2.09
2022-12-18T13:51:50.283Z,1.90
2022-12-18T13:55:52.775Z,1.12
2022-12-18T13:59:55.486Z,0.07
2022-12-18T14:04:20.061Z,-0.36
2022-12-18T14:08:22.145Z,-0.87
2022-12-18T14:12:46.272Z,-1.18
2022-12-18T14:16:49.923Z,-1.54
2022-12-18T14:20:55.849Z,-1.78
2022-12-18T14:25:17.801Z,-1.81
2022-12-18T14:29:27.732Z,-1.88
2022-12-18T14:33:29.271Z,-2.03
2022-12-18T14:37:30.900Z,-2.38
2022-12-18T14:41:33.967Z,-2.55
2022-12-18T14:45:47.041Z,-2.69
2022-12-18T14:49:49.360Z,-2.94
2022-12-18T14:54:08.765Z,-2.97
2022-12-18T14:58:16.641Z,-3.10
2022-12-18T15:02:24.244Z,-3.11
2022-12-18T15:06:35.653Z,-3.27
2022-12-18T15:10:48.279Z,-3.41
2022-12-18T15:14:50.120Z,-3.55
2022-12-18T15:18:54.158Z,-3.60
2022-12-18T15:22:55.977Z,-3.64
2022-12-18T15:26:58.075Z,-3.73
2022-12-18T15:31:25.627Z,-3.80
2022-12-18T15:35:27.533Z,-3.82
2022-12-18T15:39:29.199Z,-3.92
2022-12-18T15:43:34.645Z,-3.95
2022-12-18T15:47:36.285Z,-3.93
2022-12-18T15:51:39.034Z,-4.02
2022-12-18T15:56:01.306Z,-4.05
2022-12-18T16:00:03.793Z,-4.07
2022-12-18T16:04:06.933Z,-4.14
2022-12-18T16:08:08.545Z,-4.15
2022-12-18T16:12:22.804Z,-4.19
2022-12-18T16:16:24.377Z,-4.17
2022-12-18T16:20:27.204Z,-4.21
2022-12-18T16:24:31.227Z,-4.33
2022-12-18T16:28:32.747Z,-4.28
2022-12-18T16:32:34.216Z,-4.27
2022-12-18T16:36:35.720Z,-4.28
2022-12-18T16:40:58.884Z,-4.29
2022-12-18T16:45:00.611Z,-4.29
2022-12-18T16:49:02.190Z,-4.29
2022-12-18T16:53:03.744Z,-4.27
2022-12-18T16:57:05.710Z,-4.27
2022-12-18T17:01:11.814Z,-4.31
2022-12-18T17:05:13.501Z,-4.28
2022-12-18T17:09:22.237Z,-4.39
2022-12-18T17:13:27.413Z,-4.33
2022-12-18T17:17:28.934Z,-4.33
2022-12-18T17:21:30.846Z,-4.32
2022-12-18T17:25:32.548Z,-4.23
2022-12-18T17:29:34.551Z,-4.36
2022-12-18T17:33:36.443Z,-4.31
2022-12-18T17:37:41.603Z,-4.33
2022-12-18T17:41:43.337Z,-4.28
2022-12-18T17:45:45.252Z,-4.27
2022-12-18T17:49:46.823Z,-4.23
2022-12-18T17:53:48.802Z,-4.28
2022-12-18T17:57:50.443Z,-4.25
2022-12-18T18:01:52.418Z,-4.17
2022-12-18T18:06:01.590Z,-4.16
2022-12-18T18:10:04.348Z,-4.12
2022-12-18T18:14:11.367Z,-4.19
2022-12-18T18:18:13.698Z,-4.08
2022-12-18T18:22:16.839Z,-4.08
2022-12-18T18:26:19.935Z,-4.07
2022-12-18T18:30:22.386Z,-4.02
2022-12-18T18:34:28.106Z,-4.00
2022-12-18T18:38:29.781Z,-3.95
2022-12-18T18:42:31.451Z,-3.92
2022-12-18T18:46:33.425Z,-3.92
2022-12-18T18:50:35.209Z,-3.91
2022-12-18T18:54:36.832Z,-3.91
2022-12-18T18:58:38.583Z,-3.97
2022-12-18T19:02:40.385Z,-3.94
2022-12-18T19:06:42.642Z,-3.97
2022-12-18T19:10:44.592Z,-4.00
